Time;durP1;ratioP1;P1;durP2;ratioP2;P2;SDS_P1;SDS_P2;PMS_P1;PMS_P2;Temp;Humidity;BMP_temperature;BMP_pressure;BME280_temperature;BME280_humidity;BME280_pressure;Samples;Min_cycle;Max_cycle;Signal;HPM_P1;HPM_P2
2021/09/28 00:00:29;;;;;;;4.13;1.70;;;13.80;81.60;;;;;;5009985;28;20491;-78
2021/09/28 00:02:55;;;;;;;4.70;1.60;;;13.80;81.70;;;;;;5010271;28;20026;-78
2021/09/28 00:05:20;;;;;;;2.70;1.35;;;13.70;81.70;;;;;;5010363;28;20022;-78
2021/09/28 00:07:46;;;;;;;1.65;1.40;;;13.80;81.80;;;;;;5009175;28;20045;-78
2021/09/28 00:10:11;;;;;;;5.47;1.80;;;13.80;81.70;;;;;;5010057;28;20101;-78
2021/09/28 00:12:37;;;;;;;4.15;2.00;;;13.80;81.70;;;;;;5010154;28;20366;-78
2021/09/28 00:15:05;;;;;;;6.53;2.35;;;13.70;81.70;;;;;;5010102;28;20472;-78
2021/09/28 00:17:30;;;;;;;4.88;1.90;;;13.70;81.80;;;;;;4996568;28;20030;-78
2021/09/28 00:19:56;;;;;;;5.10;2.20;;;13.70;81.80;;;;;;5018172;28;20357;-78
2021/09/28 00:22:21;;;;;;;3.50;1.95;;;13.60;81.80;;;;;;5086330;28;20524;-78
2021/09/28 00:24:47;;;;;;;5.18;1.90;;;13.60;81.90;;;;;;5055034;28;20027;-78
2021/09/28 00:27:12;;;;;;;6.50;2.92;;;13.60;82.00;;;;;;5082452;28;20032;-77
2021/09/28 00:29:38;;;;;;;4.25;2.08;;;13.50;82.10;;;;;;5112588;28;20031;-78
2021/09/28 00:32:05;;;;;;;5.38;1.95;;;13.40;82.40;;;;;;5112075;28;20015;-78
2021/09/28 00:34:30;;;;;;;4.93;1.80;;;13.40;82.50;;;;;;5075415;28;20065;-78
2021/09/28 00:36:56;;;;;;;6.32;1.90;;;13.30;82.50;;;;;;5056690;28;20430;-77
2021/09/28 00:39:22;;;;;;;4.53;2.20;;;13.30;82.60;;;;;;5111911;28;20036;-78
2021/09/28 00:41:47;;;;;;;5.35;2.22;;;13.30;82.70;;;;;;5111954;28;20047;-78
2021/09/28 00:44:13;;;;;;;6.32;2.30;;;13.30;82.80;;;;;;5112010;28;20015;-77
2021/09/28 00:46:38;;;;;;;2.97;1.67;;;13.30;82.90;;;;;;5078817;28;20484;-77
2021/09/28 00:49:04;;;;;;;3.75;2.00;;;13.30;82.90;;;;;;5103409;28;20061;-78
2021/09/28 00:51:29;;;;;;;4.80;2.20;;;13.30;82.80;;;;;;5111762;28;20027;-78
2021/09/28 00:53:55;;;;;;;7.20;2.40;;;13.30;82.80;;;;;;5089706;28;20033;-78
2021/09/28 00:56:22;;;;;;;4.15;2.10;;;13.30;82.80;;;;;;5008884;28;20042;-78
2021/09/28 00:58:48;;;;;;;4.68;1.90;;;13.30;82.90;;;;;;5008963;28;20018;-78
2021/09/28 01:01:15;;;;;;;3.83;2.00;;;13.30;82.90;;;;;;5009244;28;20034;-78
2021/09/28 01:03:41;;;;;;;4.40;2.10;;;13.20;82.90;;;;;;5009390;28;20501;-78
2021/09/28 01:06:07;;;;;;;4.25;1.80;;;13.20;82.90;;;;;;5009588;28;20127;-78
2021/09/28 01:08:33;;;;;;;6.57;2.40;;;13.20;82.90;;;;;;5008523;28;20811;-79
2021/09/28 01:11:00;;;;;;;3.42;1.88;;;13.20;82.90;;;;;;5009186;28;20498;-78
2021/09/28 01:13:26;;;;;;;4.40;1.92;;;13.20;83.00;;;;;;5009081;28;20103;-78
2021/09/28 01:16:00;;;;;;;4.00;2.08;;;13.20;83.00;;;;;;5009379;28;20045;-78
2021/09/28 01:18:31;;;;;;;5.25;1.90;;;13.20;83.00;;;;;;5012248;28;20026;-77
2021/09/28 01:20:57;;;;;;;6.57;2.17;;;13.20;83.10;;;;;;5079711;28;20031;-76
2021/09/28 01:23:23;;;;;;;7.30;2.80;;;13.20;83.00;;;;;;5043919;28;20066;-77
2021/09/28 01:25:48;;;;;;;5.60;2.20;;;13.20;83.10;;;;;;5008372;28;20057;-77
2021/09/28 01:28:14;;;;;;;4.03;2.00;;;13.10;83.20;;;;;;5008678;28;20166;-77
2021/09/28 01:30:40;;;;;;;4.30;2.10;;;13.10;83.30;;;;;;5008828;28;20547;-77
2021/09/28 01:33:05;;;;;;;5.75;2.40;;;13.10;83.30;;;;;;5008627;28;20026;-77
2021/09/28 01:35:31;;;;;;;5.20;2.10;;;13.10;83.40;;;;;;5008634;28;20029;-76
2021/09/28 01:37:57;;;;;;;4.10;1.83;;;13.00;83.40;;;;;;5008444;28;20375;-77
2021/09/28 01:40:22;;;;;;;4.45;2.20;;;13.10;83.50;;;;;;5008827;28;20037;-77
2021/09/28 01:42:48;;;;;;;6.15;2.70;;;13.00;83.50;;;;;;5008368;28;20098;-77
2021/09/28 01:45:14;;;;;;;5.20;2.08;;;13.00;83.60;;;;;;5008651;28;20080;-78
2021/09/28 01:47:40;;;;;;;6.32;2.40;;;13.00;83.60;;;;;;5008409;28;20038;-77
2021/09/28 01:50:06;;;;;;;3.97;1.95;;;13.00;83.70;;;;;;5008317;28;20026;-77
2021/09/28 01:52:37;;;;;;;4.80;2.10;;;13.00;83.70;;;;;;5008555;28;20028;-77
2021/09/28 01:55:04;;;;;;;6.97;2.47;;;13.00;83.70;;;;;;5008472;28;20487;-77
2021/09/28 01:57:30;;;;;;;5.07;2.20;;;12.90;83.80;;;;;;5007692;28;20049;-76
2021/09/28 01:59:55;;;;;;;6.70;1.95;;;12.90;83.90;;;;;;5008613;28;20471;-76
2021/09/28 02:02:21;;;;;;;6.28;1.90;;;12.90;84.00;;;;;;5008419;28;20375;-76
2021/09/28 02:04:46;;;;;;;5.10;1.90;;;12.90;84.10;;;;;;5008242;28;20033;-76
2021/09/28 02:07:12;;;;;;;6.95;2.22;;;12.90;84.00;;;;;;5007903;28;20034;-76
2021/09/28 02:09:37;;;;;;;5.55;1.75;;;12.90;84.10;;;;;;5008859;28;20022;-76
2021/09/28 02:12:03;;;;;;;5.03;2.03;;;12.90;84.10;;;;;;5008653;28;20070;-76
2021/09/28 02:14:29;;;;;;;7.15;2.20;;;12.90;84.10;;;;;;5008615;28;20025;-76
2021/09/28 02:16:55;;;;;;;4.90;2.22;;;12.90;84.10;;;;;;5007254;28;20400;-76
2021/09/28 02:19:21;;;;;;;4.78;2.00;;;12.80;84.20;;;;;;5008313;28;20022;-76
2021/09/28 02:21:47;;;;;;;5.38;1.80;;;12.80;84.10;;;;;;5008402;28;20537;-76
2021/09/28 02:24:13;;;;;;;4.13;1.75;;;12.80;84.20;;;;;;5008218;28;20108;-76
2021/09/28 02:26:38;;;;;;;4.20;1.60;;;12.80;84.20;;;;;;5008035;28;20045;-76
2021/09/28 02:29:04;;;;;;;5.10;1.65;;;12.80;84.20;;;;;;5007521;28;20036;-77
2021/09/28 02:31:30;;;;;;;5.95;1.77;;;12.80;84.10;;;;;;5003650;28;20113;-77
2021/09/28 02:33:56;;;;;;;4.20;1.90;;;12.80;84.20;;;;;;4986874;28;20115;-77
2021/09/28 02:36:21;;;;;;;7.57;2.10;;;12.80;84.20;;;;;;5001321;28;20392;-78
2021/09/28 02:38:47;;;;;;;4.95;1.98;;;12.80;84.20;;;;;;5006885;28;20026;-77
2021/09/28 02:41:12;;;;;;;4.93;2.15;;;12.80;84.20;;;;;;5007971;28;20034;-77
2021/09/28 02:43:38;;;;;;;3.80;1.80;;;12.80;84.20;;;;;;5007706;28;20045;-77
2021/09/28 02:46:04;;;;;;;6.18;2.00;;;12.70;84.30;;;;;;5009790;28;20041;-77
2021/09/28 02:48:30;;;;;;;4.22;1.98;;;12.80;84.30;;;;;;5010918;28;20426;-76
2021/09/28 02:50:56;;;;;;;5.78;2.03;;;12.70;84.30;;;;;;5009877;28;20157;-77
2021/09/28 02:53:21;;;;;;;5.93;2.10;;;12.70;84.40;;;;;;5010655;28;20117;-77
2021/09/28 02:55:47;;;;;;;3.20;1.65;;;12.70;84.40;;;;;;5011349;28;20113;-77
2021/09/28 02:58:13;;;;;;;6.70;2.10;;;12.70;84.50;;;;;;5010514;28;20490;-77
2021/09/28 03:00:38;;;;;;;4.03;1.65;;;12.70;84.40;;;;;;5011041;28;20053;-77
2021/09/28 03:03:04;;;;;;;6.72;2.50;;;12.60;84.40;;;;;;5010371;28;20038;-77
2021/09/28 03:05:30;;;;;;;6.15;1.70;;;12.60;84.40;;;;;;5011044;28;20030;-77
2021/09/28 03:07:55;;;;;;;5.25;1.80;;;12.60;84.60;;;;;;5010540;28;20159;-76
2021/09/28 03:10:21;;;;;;;5.25;1.60;;;12.60;84.60;;;;;;5010792;28;20442;-77
2021/09/28 03:12:46;;;;;;;5.22;2.08;;;12.60;84.50;;;;;;5011079;28;20033;-77
2021/09/28 03:15:12;;;;;;;5.20;2.10;;;12.60;84.40;;;;;;5010521;28;20022;-77
2021/09/28 03:17:37;;;;;;;4.35;1.63;;;12.60;84.40;;;;;;5010393;28;20049;-77
2021/09/28 03:20:04;;;;;;;6.05;1.85;;;12.60;84.50;;;;;;5010130;28;20026;-77
2021/09/28 03:22:30;;;;;;;4.07;1.50;;;12.60;84.50;;;;;;5011116;28;20041;-76
2021/09/28 03:24:55;;;;;;;5.40;1.98;;;12.50;85.20;;;;;;5010635;28;20022;-76
2021/09/28 03:27:21;;;;;;;8.43;2.08;;;12.50;84.50;;;;;;5010189;28;20022;-77
2021/09/28 03:29:47;;;;;;;5.88;1.90;;;12.50;84.60;;;;;;5010466;28;20026;-76
2021/09/28 03:32:12;;;;;;;6.15;1.90;;;12.50;84.60;;;;;;5010350;28;20018;-76
2021/09/28 03:34:38;;;;;;;3.53;1.45;;;12.40;84.70;;;;;;5010537;28;20022;-76
2021/09/28 03:37:04;;;;;;;5.28;1.85;;;12.40;84.80;;;;;;5010127;28;20495;-76
2021/09/28 03:39:29;;;;;;;5.82;1.83;;;12.50;84.80;;;;;;5007936;28;20022;-76
2021/09/28 03:41:55;;;;;;;4.35;1.55;;;12.40;84.60;;;;;;5009390;28;20025;-76
2021/09/28 03:44:20;;;;;;;5.35;2.00;;;12.40;84.60;;;;;;5010226;28;20041;-77
2021/09/28 03:46:46;;;;;;;5.10;1.60;;;12.40;84.50;;;;;;5010000;28;20018;-78
2021/09/28 03:49:11;;;;;;;3.75;1.60;;;12.40;84.50;;;;;;5009917;28;20067;-75
2021/09/28 03:51:37;;;;;;;5.47;1.90;;;12.40;84.50;;;;;;5010167;28;20101;-75
2021/09/28 03:54:02;;;;;;;9.32;2.05;;;12.40;84.50;;;;;;5010202;28;20101;-75
2021/09/28 03:56:28;;;;;;;4.22;1.83;;;12.40;84.60;;;;;;5009217;28;20010;-75
2021/09/28 03:58:53;;;;;;;7.57;2.22;;;12.30;84.60;;;;;;5009597;28;20024;-76
2021/09/28 04:01:19;;;;;;;4.03;1.90;;;12.30;84.70;;;;;;5009895;28;20030;-76
2021/09/28 04:03:45;;;;;;;4.72;1.90;;;12.30;84.80;;;;;;5010096;28;20462;-76
2021/09/28 04:06:11;;;;;;;4.65;1.77;;;12.30;84.90;;;;;;5009603;28;20022;-76
2021/09/28 04:08:36;;;;;;;4.65;1.80;;;12.30;84.90;;;;;;5009124;28;20484;-76
2021/09/28 04:11:02;;;;;;;7.85;2.00;;;12.30;84.90;;;;;;5009914;28;20030;-76
2021/09/28 04:13:28;;;;;;;3.58;1.70;;;12.30;85.00;;;;;;5010074;28;20026;-76
2021/09/28 04:15:53;;;;;;;7.28;2.17;;;12.30;85.00;;;;;;5051600;28;20447;-76
2021/09/28 04:18:19;;;;;;;5.40;2.22;;;12.20;85.00;;;;;;5102312;28;20037;-77
2021/09/28 04:20:45;;;;;;;6.53;1.80;;;12.20;85.00;;;;;;5093025;28;20025;-76
2021/09/28 04:23:14;;;;;;;5.15;1.63;;;12.20;85.10;;;;;;5046851;28;20031;-76
2021/09/28 04:25:42;;;;;;;7.03;2.10;;;12.20;85.00;;;;;;5111059;28;20016;-76
2021/09/28 04:28:08;;;;;;;5.40;1.83;;;12.10;85.00;;;;;;5110741;28;20042;-76
2021/09/28 04:30:34;;;;;;;5.65;1.77;;;12.10;85.10;;;;;;5028973;28;20380;-76
2021/09/28 04:33:00;;;;;;;4.45;1.92;;;12.10;85.20;;;;;;5008647;28;20026;-75
2021/09/28 04:35:26;;;;;;;4.78;1.67;;;12.10;85.10;;;;;;5009360;28;20527;-75
2021/09/28 04:37:52;;;;;;;5.30;1.63;;;12.10;85.20;;;;;;5009225;28;20029;-76
2021/09/28 04:40:17;;;;;;;2.95;1.30;;;12.10;85.10;;;;;;5009196;28;20018;-75
2021/09/28 04:42:43;;;;;;;4.22;1.52;;;12.20;85.10;;;;;;5002440;28;20045;-75
2021/09/28 04:45:10;;;;;;;4.43;1.38;;;12.20;85.00;;;;;;5028885;28;20022;-75
2021/09/28 04:47:36;;;;;;;2.78;1.20;;;12.20;85.00;;;;;;5011900;28;20042;-76
2021/09/28 04:50:02;;;;;;;6.65;1.90;;;12.30;84.90;;;;;;5009250;28;20026;-76
2021/09/28 04:52:28;;;;;;;4.50;1.70;;;12.30;84.70;;;;;;5009368;28;20010;-75
2021/09/28 04:54:53;;;;;;;3.70;1.45;;;12.20;84.70;;;;;;5008995;28;20029;-75
2021/09/28 04:57:21;;;;;;;6.45;2.10;;;12.20;84.80;;;;;;5008710;28;20065;-75
2021/09/28 04:59:47;;;;;;;3.15;1.50;;;12.20;84.80;;;;;;5009196;28;20443;-76
2021/09/28 05:02:12;;;;;;;6.00;1.70;;;12.10;84.90;;;;;;5009177;28;20053;-76
2021/09/28 05:04:38;;;;;;;5.20;1.70;;;12.10;85.00;;;;;;5008853;28;20050;-76
2021/09/28 05:07:04;;;;;;;4.50;1.38;;;12.10;85.00;;;;;;5008742;28;20097;-76
2021/09/28 05:09:30;;;;;;;1.95;1.23;;;12.10;85.00;;;;;;5008557;28;20542;-76
2021/09/28 05:11:56;;;;;;;6.38;2.00;;;12.10;85.00;;;;;;5008961;28;20018;-76
2021/09/28 05:14:22;;;;;;;4.38;1.70;;;12.10;85.00;;;;;;5008303;28;20361;-76
2021/09/28 05:16:47;;;;;;;6.63;1.60;;;12.00;85.00;;;;;;5008853;28;20022;-76
2021/09/28 05:19:13;;;;;;;3.55;1.73;;;12.00;85.10;;;;;;5009337;28;20026;-76
2021/09/28 05:21:38;;;;;;;8.57;2.00;;;12.00;85.20;;;;;;5008689;28;20475;-75
2021/09/28 05:24:06;;;;;;;7.13;1.95;;;12.00;85.20;;;;;;5008724;28;20103;-76
2021/09/28 05:26:31;;;;;;;4.63;1.60;;;11.90;85.30;;;;;;5008706;28;20025;-78
2021/09/28 05:28:57;;;;;;;5.38;1.80;;;11.90;85.40;;;;;;5008251;28;20037;-77
2021/09/28 05:31:22;;;;;;;3.78;1.27;;;11.90;85.40;;;;;;5008731;28;20025;-77
2021/09/28 05:33:48;;;;;;;6.43;1.83;;;12.00;85.50;;;;;;5008890;28;20034;-77
2021/09/28 05:36:13;;;;;;;5.15;1.85;;;12.00;85.30;;;;;;5007479;28;20037;-78
2021/09/28 05:38:39;;;;;;;5.00;1.67;;;11.90;85.30;;;;;;5008049;28;20435;-78
2021/09/28 05:41:06;;;;;;;4.53;1.70;;;12.00;85.30;;;;;;5008714;28;20026;-77
2021/09/28 05:43:32;;;;;;;5.57;1.50;;;12.00;85.30;;;;;;5008421;28;20042;-78
2021/09/28 05:45:58;;;;;;;3.58;1.52;;;12.00;85.20;;;;;;5008763;28;20033;-80
2021/09/28 05:48:24;;;;;;;4.30;1.60;;;12.00;85.20;;;;;;5007541;28;20046;-76
2021/09/28 05:50:49;;;;;;;5.65;1.60;;;12.00;85.20;;;;;;5008594;28;20030;-78
2021/09/28 05:53:15;;;;;;;5.40;1.63;;;12.00;85.20;;;;;;5006110;28;20060;-78
2021/09/28 05:55:42;;;;;;;1.75;1.17;;;12.00;85.20;;;;;;5007606;28;20054;-77
2021/09/28 05:58:07;;;;;;;5.95;1.83;;;12.10;85.20;;;;;;5007905;28;20050;-77
2021/09/28 06:00:33;;;;;;;4.97;1.63;;;12.10;85.10;;;;;;5007897;28;20022;-78
2021/09/28 06:02:58;;;;;;;7.00;2.03;;;12.00;85.10;;;;;;5025929;28;20038;-77
2021/09/28 06:05:24;;;;;;;6.03;1.67;;;12.00;85.10;;;;;;5003551;28;20707;-78
2021/09/28 06:07:51;;;;;;;4.47;1.45;;;12.10;85.20;;;;;;4999163;28;20117;-79
2021/09/28 06:10:16;;;;;;;2.95;1.58;;;12.20;85.10;;;;;;4997000;28;20395;-78
2021/09/28 06:12:42;;;;;;;4.43;1.27;;;12.20;85.00;;;;;;5011695;28;20033;-79
2021/09/28 06:15:08;;;;;;;7.82;2.10;;;12.30;84.90;;;;;;5003552;28;20546;-79
2021/09/28 06:17:34;;;;;;;5.20;1.50;;;12.20;84.60;;;;;;4997450;28;20025;-78
2021/09/28 06:20:00;;;;;;;6.93;1.60;;;12.30;84.80;;;;;;5021455;28;20030;-80
2021/09/28 06:22:25;;;;;;;3.85;1.42;;;12.30;84.70;;;;;;5027049;28;20030;-79
2021/09/28 06:24:55;;;;;;;6.30;2.05;;;12.40;84.60;;;;;;5024461;28;20026;-76
2021/09/28 06:27:22;;;;;;;4.15;1.38;;;12.40;84.50;;;;;;5012822;28;20026;-78
2021/09/28 06:29:47;;;;;;;4.25;1.58;;;12.40;84.40;;;;;;5025073;28;20061;-78
2021/09/28 06:32:14;;;;;;;5.47;1.73;;;12.40;84.40;;;;;;5024683;28;20049;-79
2021/09/28 06:34:39;;;;;;;5.85;1.45;;;12.50;84.30;;;;;;5019528;28;20111;-78
2021/09/28 06:37:05;;;;;;;4.60;1.50;;;12.60;84.30;;;;;;5045312;28;20563;-81
2021/09/28 06:39:34;;;;;;;4.63;1.55;;;12.60;84.20;;;;;;5046193;28;20043;-81
2021/09/28 06:41:59;;;;;;;4.20;1.40;;;12.70;84.10;;;;;;5035248;28;20025;-80
2021/09/28 06:44:25;;;;;;;3.97;1.80;;;12.80;83.90;;;;;;5011874;28;20026;-79
2021/09/28 06:46:51;;;;;;;6.40;1.80;;;12.90;83.70;;;;;;5031107;28;20020;-78
2021/09/28 06:49:16;;;;;;;3.65;1.48;;;12.90;83.50;;;;;;5024009;28;20378;-78
2021/09/28 06:51:42;;;;;;;3.53;1.50;;;12.90;83.50;;;;;;5023654;28;20025;-78
2021/09/28 06:54:07;;;;;;;4.70;1.50;;;13.00;83.30;;;;;;5008749;28;20030;-79
2021/09/28 06:56:33;;;;;;;4.75;1.70;;;13.10;83.20;;;;;;5005902;28;20022;-77
2021/09/28 06:58:59;;;;;;;3.63;1.50;;;13.10;83.00;;;;;;5008576;28;20186;-78
2021/09/28 07:01:24;;;;;;;5.65;1.80;;;13.10;83.00;;;;;;5026201;28;20593;-78
2021/09/28 07:03:50;;;;;;;4.82;1.70;;;13.10;82.90;;;;;;4999255;28;20024;-75
2021/09/28 07:06:15;;;;;;;4.00;1.60;;;13.20;82.80;;;;;;5046288;28;20037;-75
2021/09/28 07:08:41;;;;;;;3.63;1.50;;;13.20;82.60;;;;;;5060778;28;20392;-76
2021/09/28 07:11:07;;;;;;;6.80;2.10;;;13.30;82.60;;;;;;5039806;28;20026;-76
2021/09/28 07:13:32;;;;;;;7.70;1.95;;;13.30;82.30;;;;;;5031265;28;20101;-78
2021/09/28 07:15:58;;;;;;;7.50;2.20;;;13.30;82.30;;;;;;5072105;28;20495;-79
2021/09/28 07:18:23;;;;;;;2.78;1.40;;;13.30;82.10;;;;;;5053803;28;20030;-77
2021/09/28 07:20:49;;;;;;;4.82;1.90;;;13.30;82.20;;;;;;5014545;28;20032;-78
2021/09/28 07:23:15;;;;;;;6.78;2.15;;;13.40;82.10;;;;;;5021542;28;20139;-78
2021/09/28 07:25:43;;;;;;;4.65;2.00;;;13.50;82.10;;;;;;5037214;28;20022;-80
2021/09/28 07:28:08;;;;;;;4.45;1.80;;;13.50;81.80;;;;;;5031917;28;20136;-80
2021/09/28 07:30:34;;;;;;;3.33;1.48;;;13.50;81.80;;;;;;5027278;28;20105;-81
2021/09/28 07:33:00;;;;;;;6.13;2.28;;;13.60;81.80;;;;;;5007994;28;20022;-80
2021/09/28 07:35:27;;;;;;;5.80;2.00;;;13.70;81.70;;;;;;5028184;28;20029;-79
2021/09/28 07:37:53;;;;;;;8.40;2.38;;;13.70;81.80;;;;;;5025741;28;20148;-81
2021/09/28 07:40:19;;;;;;;5.75;2.13;;;13.80;81.60;;;;;;5033523;28;20041;-78
2021/09/28 07:42:46;;;;;;;7.63;2.42;;;13.80;81.50;;;;;;5029315;28;20030;-77
2021/09/28 07:45:13;;;;;;;6.78;1.92;;;13.90;81.30;;;;;;5007998;28;20235;-76
2021/09/28 07:47:39;;;;;;;4.15;1.58;;;13.90;81.30;;;;;;5008592;28;20062;-75
2021/09/28 07:50:06;;;;;;;7.00;2.08;;;14.00;81.30;;;;;;5015832;28;20469;-76
2021/09/28 07:52:31;;;;;;;5.68;2.38;;;14.10;81.20;;;;;;5023047;28;20025;-75
2021/09/28 07:54:57;;;;;;;8.13;2.25;;;14.20;81.00;;;;;;5003115;28;20560;-77
2021/09/28 07:57:22;;;;;;;6.57;1.92;;;14.20;80.80;;;;;;5020576;28;20490;-77
2021/09/28 07:59:54;;;;;;;8.02;2.50;;;14.30;80.80;;;;;;5021118;28;20038;-76
2021/09/28 08:02:20;;;;;;;3.97;1.90;;;14.30;80.60;;;;;;5017483;28;20021;-76
2021/09/28 08:04:49;;;;;;;3.88;1.52;;;14.30;80.60;;;;;;5008163;28;20037;-77
2021/09/28 08:07:17;;;;;;;4.05;1.60;;;14.40;80.70;;;;;;5021719;28;20643;-78
2021/09/28 08:09:42;;;;;;;6.28;1.60;;;14.60;80.70;;;;;;5003618;28;20042;-78
2021/09/28 08:12:08;;;;;;;4.20;1.90;;;14.70;80.50;;;;;;5006880;28;20026;-80
2021/09/28 08:14:34;;;;;;;7.93;2.20;;;14.80;80.20;;;;;;5005076;28;20120;-80
2021/09/28 08:17:00;;;;;;;6.70;2.20;;;14.90;80.30;;;;;;5001201;28;20113;-77
2021/09/28 08:19:26;;;;;;;7.88;2.80;;;14.90;79.80;;;;;;5010502;28;20030;-77
2021/09/28 08:21:51;;;;;;;4.50;1.98;;;14.90;79.30;;;;;;5010500;28;20056;-77
2021/09/28 08:24:20;;;;;;;6.50;2.20;;;14.90;79.40;;;;;;5008688;28;20368;-81
2021/09/28 08:29:30;;;;;;;4.70;1.83;;;14.90;79.20;;;;;;5009703;28;20049;-79
2021/09/28 08:31:59;;;;;;;5.30;2.20;;;15.00;79.20;;;;;;5014019;28;20414;-77
2021/09/28 08:34:24;;;;;;;5.13;2.05;;;15.10;79.10;;;;;;5011039;28;20022;-79
2021/09/28 08:36:50;;;;;;;5.82;2.10;;;15.10;79.10;;;;;;5008812;28;20399;-77
2021/09/28 08:39:19;;;;;;;5.07;1.80;;;15.20;79.00;;;;;;5007646;28;20021;-81
2021/09/28 08:41:47;;;;;;;3.70;1.73;;;15.20;78.80;;;;;;5008667;28;20030;-78
2021/09/28 08:44:14;;;;;;;4.05;1.50;;;15.30;78.80;;;;;;5006984;28;20024;-76
2021/09/28 08:46:40;;;;;;;6.65;2.20;;;15.30;78.60;;;;;;5025157;28;20114;-80
2021/09/28 08:49:06;;;;;;;7.47;2.53;;;15.30;78.20;;;;;;4999570;28;20125;-78
2021/09/28 08:51:32;;;;;;;6.45;2.08;;;15.40;78.10;;;;;;5007184;28;20043;-79
2021/09/28 08:53:59;;;;;;;6.55;2.30;;;15.40;77.90;;;;;;5009753;28;20037;-79
2021/09/28 08:56:24;;;;;;;5.38;1.98;;;15.40;77.60;;;;;;5007499;28;20030;-79
2021/09/28 08:58:59;;;;;;;4.30;1.70;;;15.40;77.30;;;;;;5008241;28;20170;-80
2021/09/28 09:01:25;;;;;;;6.35;2.35;;;15.50;77.50;;;;;;5005499;28;20030;-79
2021/09/28 09:03:51;;;;;;;4.38;1.60;;;15.60;77.30;;;;;;5002078;28;20041;-78
2021/09/28 09:06:17;;;;;;;3.97;1.95;;;15.60;77.30;;;;;;5004672;28;20037;-78
2021/09/28 09:08:48;;;;;;;10.25;3.10;;;15.70;77.30;;;;;;5000691;28;20113;-80
2021/09/28 09:11:16;;;;;;;6.65;2.40;;;15.80;76.80;;;;;;5004703;28;20026;-79
2021/09/28 09:13:47;;;;;;;5.40;1.90;;;15.80;76.70;;;;;;5005986;28;20113;-78
2021/09/28 09:16:14;;;;;;;5.90;2.13;;;15.90;76.80;;;;;;5004909;28;20499;-80
2021/09/28 09:18:43;;;;;;;4.65;1.48;;;15.90;76.60;;;;;;5005265;28;20018;-79
2021/09/28 09:21:15;;;;;;;4.70;1.73;;;16.00;76.60;;;;;;5001330;28;20033;-81
2021/09/28 09:23:50;;;;;;;8.70;2.53;;;16.10;76.60;;;;;;5016299;28;20096;-78
2021/09/28 09:26:19;;;;;;;5.05;2.35;;;16.10;76.00;;;;;;5007179;28;20036;-81
2021/09/28 09:28:49;;;;;;;6.93;2.28;;;16.10;75.80;;;;;;5005614;28;20049;-82
2021/09/28 09:31:34;;;;;;;3.53;1.52;;;16.20;75.80;;;;;;5007646;28;20022;-79
2021/09/28 09:34:09;;;;;;;4.60;1.70;;;16.20;75.70;;;;;;5005614;28;20035;-80
2021/09/28 09:36:35;;;;;;;6.88;2.20;;;16.20;75.40;;;;;;5012799;28;20167;-78
2021/09/28 09:39:05;;;;;;;6.43;2.08;;;16.30;75.20;;;;;;5007538;28;20026;-78
2021/09/28 09:41:32;;;;;;;4.60;2.10;;;16.30;75.30;;;;;;5017767;28;20041;-78
2021/09/28 09:44:07;;;;;;;3.03;1.50;;;16.40;75.20;;;;;;5037815;28;20160;-77
2021/09/28 09:46:41;;;;;;;4.65;1.65;;;16.50;75.30;;;;;;5003842;28;20809;-79
2021/09/28 09:49:07;;;;;;;5.53;1.98;;;16.60;75.20;;;;;;5013171;28;20416;-78
2021/09/28 09:51:44;;;;;;;7.88;2.50;;;16.70;74.90;;;;;;5020632;28;20022;-77
2021/09/28 09:54:10;;;;;;;6.05;1.90;;;16.80;74.20;;;;;;5002488;28;20034;-77
2021/09/28 09:56:51;;;;;;;7.20;2.28;;;16.80;73.90;;;;;;5004925;28;20071;-79
2021/09/28 09:59:19;;;;;;;4.38;1.60;;;16.80;73.10;;;;;;5008240;28;20122;-79
2021/09/28 10:01:45;;;;;;;6.85;2.42;;;16.90;73.40;;;;;;5008665;28;20041;-77
2021/09/28 10:04:14;;;;;;;6.07;2.10;;;16.90;73.10;;;;;;5007919;28;20037;-78
2021/09/28 10:06:42;;;;;;;6.03;2.17;;;16.90;73.00;;;;;;5012721;28;20020;-79
2021/09/28 10:09:37;;;;;;;7.90;2.10;;;16.90;72.70;;;;;;5013875;28;20556;-79
2021/09/28 10:12:10;;;;;;;6.93;1.98;;;16.90;72.40;;;;;;5009483;28;20369;-78
2021/09/28 10:14:39;;;;;;;7.32;2.13;;;17.00;72.50;;;;;;5027300;28;20467;-76
2021/09/28 10:17:20;;;;;;;5.43;1.95;;;17.10;72.60;;;;;;5022158;28;20026;-78
2021/09/28 10:19:51;;;;;;;4.35;1.30;;;17.20;72.60;;;;;;5037014;28;20034;-78
2021/09/28 10:22:35;;;;;;;5.85;1.55;;;17.20;72.70;;;;;;5015407;28;20057;-79
2021/09/28 10:25:34;;;;;;;7.03;2.17;;;17.30;72.60;;;;;;5014415;28;20427;-80
2021/09/28 10:28:03;;;;;;;7.22;2.00;;;17.40;72.00;;;;;;5031000;28;20082;-80
2021/09/28 10:30:35;;;;;;;8.43;1.83;;;17.50;72.10;;;;;;5016160;28;20018;-80
2021/09/28 10:33:30;;;;;;;4.75;1.50;;;17.60;72.00;;;;;;5019887;28;20033;-79
2021/09/28 10:36:01;;;;;;;7.80;1.85;;;17.70;71.80;;;;;;5047956;28;20060;-80
2021/09/28 10:38:47;;;;;;;4.00;1.40;;;17.80;70.90;;;;;;5011083;28;20368;-80
2021/09/28 10:41:28;;;;;;;3.28;1.70;;;17.80;71.00;;;;;;5011804;28;20373;-80
2021/09/28 10:43:54;;;;;;;3.75;1.42;;;17.90;70.60;;;;;;5022703;28;20045;-80
2021/09/28 10:46:39;;;;;;;6.53;1.38;;;18.00;70.70;;;;;;5040669;28;20020;-81
2021/09/28 10:49:28;;;;;;;5.93;1.58;;;18.00;70.50;;;;;;5061844;28;20484;-80
2021/09/28 10:52:21;;;;;;;6.40;1.55;;;18.10;70.10;;;;;;5051304;28;20070;-80
2021/09/28 10:55:12;;;;;;;8.13;1.70;;;18.10;69.20;;;;;;5023141;28;20061;-79
2021/09/28 10:58:01;;;;;;;4.78;1.50;;;18.20;69.00;;;;;;5012860;28;20022;-78
2021/09/28 11:00:52;;;;;;;4.38;1.30;;;18.30;69.10;;;;;;5012615;28;20424;-78
2021/09/28 11:03:37;;;;;;;3.63;1.15;;;18.40;68.70;;;;;;5009245;28;20475;-80
2021/09/28 11:06:05;;;;;;;7.38;1.95;;;18.40;68.50;;;;;;5013694;28;20421;-79
2021/09/28 11:08:34;;;;;;;6.10;1.50;;;18.50;67.60;;;;;;5005631;28;20037;-79
2021/09/28 11:11:01;;;;;;;10.25;2.10;;;18.50;67.50;;;;;;5009874;28;20021;-80
2021/09/28 11:13:32;;;;;;;9.07;2.03;;;18.50;65.70;;;;;;5011011;28;20661;-79
2021/09/28 11:16:00;;;;;;;4.40;1.48;;;18.50;66.30;;;;;;5009403;28;20256;-79
2021/09/28 11:18:26;;;;;;;8.00;2.42;;;18.60;66.70;;;;;;5015216;28;20490;-79
2021/09/28 11:20:52;;;;;;;7.43;2.03;;;18.70;66.30;;;;;;5011296;28;20106;-79
2021/09/28 11:23:17;;;;;;;6.80;1.80;;;18.70;65.30;;;;;;5005628;28;20127;-80
2021/09/28 11:25:52;;;;;;;6.30;1.73;;;18.70;65.50;;;;;;5011951;28;20404;-77
2021/09/28 11:28:19;;;;;;;3.95;1.48;;;18.70;65.70;;;;;;5007071;28;20391;-77
2021/09/28 11:30:57;;;;;;;6.63;1.67;;;18.90;65.90;;;;;;5015745;28;20022;-77
2021/09/28 11:33:23;;;;;;;5.40;1.40;;;19.00;65.30;;;;;;5010189;28;20380;-77
2021/09/28 11:36:00;;;;;;;3.80;1.48;;;19.00;65.00;;;;;;5019397;27;20371;-76
2021/09/28 11:38:28;;;;;;;6.18;1.73;;;19.10;64.90;;;;;;5034072;28;20121;-77
2021/09/28 11:40:59;;;;;;;5.00;1.40;;;19.10;64.50;;;;;;5004637;28;20460;-78
2021/09/28 11:43:28;;;;;;;5.03;1.40;;;19.20;65.00;;;;;;5010393;28;20045;-77
2021/09/28 11:46:11;;;;;;;3.33;1.05;;;19.30;65.10;;;;;;5007677;28;20014;-81
2021/09/28 11:48:54;;;;;;;5.10;1.27;;;19.50;65.00;;;;;;5022075;28;20046;-79
2021/09/28 11:51:24;;;;;;;3.38;1.00;;;19.60;64.10;;;;;;5015061;28;20028;-79
2021/09/28 11:54:00;;;;;;;7.80;1.50;;;19.60;64.20;;;;;;5011509;28;20609;-77
2021/09/28 11:56:32;;;;;;;6.55;1.70;;;19.70;64.20;;;;;;5012831;28;20017;-80
2021/09/28 11:58:58;;;;;;;6.32;1.52;;;19.60;62.40;;;;;;5000210;28;20511;-78
2021/09/28 12:01:25;;;;;;;4.75;1.38;;;19.70;62.90;;;;;;5010702;28;20034;-76
2021/09/28 12:04:15;;;;;;;4.78;1.15;;;19.70;61.90;;;;;;5011153;28;20055;-76
2021/09/28 12:07:08;;;;;;;4.57;1.30;;;19.80;61.80;;;;;;5003774;28;20068;-78
2021/09/28 12:09:33;;;;;;;;;;;19.70;61.20;;;;;;5010113;28;20416;-76
2021/09/28 12:12:03;;;;;;;4.40;1.10;;;19.70;60.60;;;;;;5009780;28;19913;-75
2021/09/28 12:14:36;;;;;;;3.90;0.90;;;19.60;61.30;;;;;;4999322;28;20029;-76
2021/09/28 12:17:26;;;;;;;3.03;1.00;;;19.80;61.60;;;;;;5011442;28;20034;-77
2021/09/28 12:20:16;;;;;;;3.13;1.10;;;20.00;60.90;;;;;;5008492;28;20041;-77
2021/09/28 12:23:01;;;;;;;3.08;1.00;;;20.20;60.80;;;;;;5003936;28;20171;-77
2021/09/28 12:25:38;;;;;;;4.72;1.40;;;20.30;60.50;;;;;;5001608;28;20040;-77
2021/09/28 12:28:08;;;;;;;5.05;1.30;;;20.40;59.50;;;;;;5008920;28;20040;-79
2021/09/28 12:30:47;;;;;;;4.60;1.10;;;20.50;59.10;;;;;;5004906;28;20038;-77
2021/09/28 12:33:14;;;;;;;3.60;1.10;;;20.50;58.80;;;;;;5002943;28;20110;-77
2021/09/28 12:35:40;;;;;;;2.63;0.98;;;20.60;59.10;;;;;;5001266;28;21334;-80
2021/09/28 12:38:09;;;;;;;3.38;1.05;;;20.70;58.30;;;;;;5004460;28;20034;-80
2021/09/28 12:40:41;;;;;;;4.72;1.20;;;20.80;58.50;;;;;;5009496;28;20052;-78
2021/09/28 12:43:08;;;;;;;;;;;20.80;56.20;;;;;;5020794;28;20028;-78
2021/09/28 12:45:56;;;;;;;3.20;0.90;;;20.80;55.90;;;;;;5010796;28;20004;-77
2021/09/28 12:48:23;;;;;;;4.57;1.40;;;20.80;56.30;;;;;;5000842;28;20034;-78
2021/09/28 12:51:07;;;;;;;4.82;1.60;;;20.80;57.00;;;;;;5002085;28;20487;-77
2021/09/28 12:53:33;;;;;;;4.95;1.10;;;20.80;56.40;;;;;;5019087;28;20034;-79
2021/09/28 12:55:59;;;;;;;3.22;0.90;;;20.60;56.60;;;;;;5011591;28;20437;-78